Disclaimer

Please do not use the information listed here in-flight or in-navigation, as they are not provided to us by the airports but are provided by volunteers, so they might be outdated.

Search


Regions


Airport information page

Radio informations:
Tower (TWR) - 118.1 MHz
MONTERIA RDO - 3488 MHz
MONTERIA FIS - 127.5 MHz

Airport informations:
Latitude: 08° 49' 25.48" N
Longitude: 075° 49' 32.99" W
Elevation: 36 feet - 11 meters
Operating hours: Remarks
Operating agency: Civil government, landing fees and diplomatic clearance may be required
Timezone: UTC-5
Fuel: N/A

Runway information:
14/32 - 6285 x 115 feet< - >1916 x 35 meters

Recent METARs:
SKMR 202000Z 01005KT 9999 FEW020TCU BKN120 31/26 A2974 RMK TCU/S
SKMR 202000Z 01005KT 9999 FEW020TCU BKN120 31/26 A2974 RMK TCU/S
SKMR 202100Z 33010KT 9999 FEW020 BKN120 30/26 A2974

Airport on the map: